This is the latest recevied weather packets stored in our database for station/object KB1WCR. If no packets are shown the sender has not sent any weather packets the latest 1 day(s).
| Time | Temp. | Humidity | Pressure | Rain* | Wind** | Luminosity | Snow |
|---|---|---|---|---|---|---|---|
| 1778014541 | 22.78° C | 55% | 1003.5 hPa | 0 mm | 0 m/s | 202 W/m² | - |
| 1778014238 | 23.33° C | 55% | 1003.4 hPa | 0 mm | 1.79 m/s, 221° | 189 W/m² | - |
| 1778013936 | 23.89° C | 53% | 1003.5 hPa | 0 mm | 1.79 m/s, 28° | 270 W/m² | - |
| 1778013633 | 23.33° C | 54% | 1003.4 hPa | 0 mm | 1.34 m/s, 244° | 363 W/m² | - |
| 1778013329 | 23.33° C | 55% | 1003.6 hPa | 0 mm | 2.68 m/s, 215° | 290 W/m² | - |
| 1778013027 | 23.33° C | 53% | 1003.7 hPa | 0 mm | 1.34 m/s, 210° | 392 W/m² | - |
| 1778012723 | 23.33° C | 54% | 1003.7 hPa | 0 mm | 2.68 m/s, 198° | 379 W/m² | - |
| 1778012418 | 23.33° C | 54% | 1003.6 hPa | 0 mm | 2.24 m/s, 333° | 407 W/m² | - |
| 1778012116 | 23.33° C | 57% | 1003.5 hPa | 0 mm | 0.89 m/s, 114° | 394 W/m² | - |
| 1778011813 | 23.33° C | 56% | 1003.7 hPa | 0 mm | 1.79 m/s, 220° | 260 W/m² | - |
| 1778011511 | 22.78° C | 55% | 1003.9 hPa | 0 mm | 3.13 m/s, 211° | 454 W/m² | - |
| 1778011208 | 23.33° C | 55% | 1003.8 hPa | 0 mm | 2.68 m/s, 145° | 499 W/m² | - |
| 1778010904 | 23.89° C | 54% | 1003.9 hPa | 0 mm | 2.68 m/s, 204° | 441 W/m² | - |
| 1778010601 | 23.33° C | 54% | 1003.9 hPa | 0 mm | 3.13 m/s, 174° | 494 W/m² | - |
| 1778010299 | 23.89° C | 53% | 1004.1 hPa | 0 mm | 3.58 m/s, 237° | 526 W/m² | - |
| 1778010001 | 23.89° C | 53% | 1004.1 hPa | 0 mm | 1.34 m/s, 238° | 508 W/m² | - |
| 1778009696 | 24.44° C | 51% | 1004.2 hPa | 0 mm | 4.02 m/s, 191° | 422 W/m² | - |
| 1778009393 | 24.44° C | 51% | 1004 hPa | 0 mm | 1.79 m/s, 187° | 526 W/m² | - |
| 1778009092 | 24.44° C | 52% | 1004 hPa | 0 mm | 1.79 m/s, 222° | 536 W/m² | - |
| 1778008789 | 24.44° C | 51% | 1004.3 hPa | 0 mm | 2.24 m/s, 111° | 561 W/m² | - |
| 1778008488 | 24.44° C | 50% | 1004.3 hPa | 0 mm | 4.02 m/s, 232° | 574 W/m² | - |
| 1778008184 | 25° C | 50% | 1004.4 hPa | 0 mm | 3.13 m/s, 147° | 558 W/m² | - |
| 1778007879 | 25.56° C | 50% | 1004.6 hPa | 0 mm | 3.58 m/s, 252° | 653 W/m² | - |
| 1778007575 | 25° C | 53% | 1004.6 hPa | 0 mm | 1.34 m/s, 212° | 248 W/m² | - |
| 1778007273 | 25° C | 51% | 1004.7 hPa | 0 mm | 2.68 m/s, 271° | 210 W/m² | - |
* Rain latest hour (hover to see other rain measurements)
** Current wind speed in m/s (hover to see current wind gust speed)